createdAt,value
2022-10-18T00:01:46.040Z,15.96
2022-10-18T00:04:14.386Z,15.96
2022-10-18T00:06:43.645Z,15.97
2022-10-18T00:09:13.130Z,15.97
2022-10-18T00:11:41.765Z,15.97
2022-10-18T00:14:10.150Z,15.98
2022-10-18T00:16:38.788Z,15.97
2022-10-18T00:19:07.105Z,15.97
2022-10-18T00:21:35.921Z,15.96
2022-10-18T00:24:04.906Z,15.95
2022-10-18T00:26:33.308Z,15.93
2022-10-18T00:29:05.163Z,15.92
2022-10-18T00:31:38.704Z,15.91
2022-10-18T00:34:13.833Z,15.82
2022-10-18T00:36:43.724Z,15.88
2022-10-18T00:39:17.738Z,15.87
2022-10-18T00:41:46.674Z,15.87
2022-10-18T00:44:17.954Z,15.87
2022-10-18T00:46:49.022Z,15.84
2022-10-18T00:49:37.717Z,15.83
2022-10-18T00:52:17.358Z,15.80
2022-10-18T00:54:47.478Z,15.73
2022-10-18T00:57:15.989Z,15.70
2022-10-18T01:02:45.027Z,15.61
2022-10-18T01:05:15.457Z,15.57
2022-10-18T01:07:59.964Z,15.55
2022-10-18T01:10:42.289Z,15.53
2022-10-18T01:13:36.174Z,15.51
2022-10-18T01:16:19.315Z,15.49
2022-10-18T01:19:32.024Z,15.48
2022-10-18T01:22:14.394Z,15.46
2022-10-18T01:24:54.454Z,15.43
2022-10-18T01:27:44.486Z,15.40
2022-10-18T01:30:34.255Z,15.39
2022-10-18T01:33:17.682Z,15.37
2022-10-18T01:36:03.619Z,15.36
2022-10-18T01:38:33.348Z,15.26
2022-10-18T01:41:03.970Z,15.32
2022-10-18T01:43:34.233Z,15.30
2022-10-18T01:46:04.405Z,15.29
2022-10-18T01:48:33.738Z,15.25
2022-10-18T01:51:01.878Z,15.25
2022-10-18T01:53:34.692Z,15.22
2022-10-18T01:56:32.006Z,15.22
2022-10-18T01:59:22.177Z,15.21
2022-10-18T02:01:56.045Z,15.21
2022-10-18T02:04:32.354Z,15.19
2022-10-18T02:07:42.506Z,15.18
2022-10-18T02:12:46.822Z,15.14
2022-10-18T02:15:26.378Z,15.12
2022-10-18T02:17:56.319Z,15.11
2022-10-18T02:20:29.138Z,15.09
2022-10-18T02:22:59.834Z,15.07
2022-10-18T02:25:31.607Z,15.06
2022-10-18T02:31:03.239Z,15.07
2022-10-18T02:34:00.739Z,15.07
2022-10-18T02:36:37.351Z,15.05
2022-10-18T02:39:11.509Z,15.03
2022-10-18T02:42:08.704Z,15.03
2022-10-18T02:44:37.947Z,15.01
2022-10-18T02:47:07.962Z,14.99
2022-10-18T02:49:36.139Z,14.97
2022-10-18T02:52:04.495Z,14.96
2022-10-18T02:54:33.719Z,14.93
2022-10-18T02:57:01.866Z,14.91
2022-10-18T02:59:29.999Z,14.90
2022-10-18T03:01:58.152Z,14.89
2022-10-18T03:06:54.591Z,14.87
2022-10-18T03:09:28.773Z,14.88
2022-10-18T03:11:57.646Z,14.89
2022-10-18T03:14:25.754Z,14.82
2022-10-18T03:16:53.922Z,14.91
2022-10-18T03:19:22.064Z,14.91
2022-10-18T03:21:50.222Z,14.92
2022-10-18T03:24:18.371Z,14.95
2022-10-18T03:26:46.695Z,14.97
2022-10-18T03:29:14.802Z,14.98
2022-10-18T03:31:48.219Z,14.99
2022-10-18T03:34:17.910Z,15.00
2022-10-18T03:36:46.059Z,15.01
2022-10-18T03:39:18.182Z,15.02
2022-10-18T03:41:46.409Z,15.02
2022-10-18T03:44:14.547Z,15.02
2022-10-18T03:46:42.632Z,15.02
2022-10-18T03:49:36.426Z,15.02
2022-10-18T03:52:04.570Z,14.99
2022-10-18T03:54:32.742Z,14.98
2022-10-18T03:57:05.402Z,14.97
2022-10-18T03:59:59.248Z,14.97
2022-10-18T04:02:27.392Z,14.97
2022-10-18T04:05:20.557Z,14.97
2022-10-18T04:07:48.699Z,14.97
2022-10-18T04:10:16.909Z,14.97
2022-10-18T04:13:10.429Z,14.92
2022-10-18T04:15:38.826Z,14.82
2022-10-18T04:18:32.026Z,14.82
2022-10-18T04:21:25.338Z,14.74
2022-10-18T04:23:53.516Z,14.70
2022-10-18T04:26:21.937Z,14.71
2022-10-18T04:29:15.224Z,14.69
2022-10-18T04:31:49.004Z,14.66
2022-10-18T04:34:17.276Z,14.68
2022-10-18T04:37:10.849Z,14.69
2022-10-18T04:39:39.090Z,14.70
2022-10-18T04:42:32.365Z,14.69
2022-10-18T04:45:00.492Z,14.69
2022-10-18T04:47:54.169Z,14.69
2022-10-18T04:50:22.432Z,14.69
2022-10-18T04:53:17.900Z,14.67
2022-10-18T04:55:51.261Z,14.57
2022-10-18T04:58:19.371Z,14.61
2022-10-18T05:00:48.013Z,14.58
2022-10-18T05:03:16.648Z,14.56
2022-10-18T05:06:11.092Z,14.55
2022-10-18T05:08:39.336Z,14.54
2022-10-18T05:11:07.458Z,14.54
2022-10-18T05:14:01.381Z,14.53
2022-10-18T05:16:29.554Z,14.43
2022-10-18T05:18:57.765Z,14.50
2022-10-18T05:21:25.931Z,14.47
2022-10-18T05:23:57.058Z,14.46
2022-10-18T05:26:25.232Z,14.43
2022-10-18T05:28:53.528Z,14.41
2022-10-18T05:31:21.867Z,14.39
2022-10-18T05:33:57.247Z,14.41
2022-10-18T05:36:26.459Z,14.43
2022-10-18T05:38:56.299Z,14.44
2022-10-18T05:41:25.105Z,14.45
2022-10-18T05:43:53.421Z,14.46
2022-10-18T05:46:21.560Z,14.47
2022-10-18T05:49:16.228Z,14.49
2022-10-18T05:51:44.315Z,14.49
2022-10-18T05:54:37.263Z,14.49
2022-10-18T05:57:05.457Z,14.51
2022-10-18T05:59:33.596Z,14.46
2022-10-18T06:02:01.772Z,14.57
2022-10-18T06:04:29.957Z,14.59
2022-10-18T06:06:58.087Z,14.61
2022-10-18T06:09:30.823Z,14.63
2022-10-18T06:11:58.968Z,14.67
2022-10-18T06:14:27.044Z,14.71
2022-10-18T06:16:56.893Z,14.72
2022-10-18T06:19:50.127Z,14.75
2022-10-18T06:22:18.214Z,14.78
2022-10-18T06:25:11.636Z,14.80
2022-10-18T06:27:39.953Z,14.82
2022-10-18T06:30:08.942Z,14.83
2022-10-18T06:32:37.046Z,14.84
2022-10-18T06:35:30.053Z,14.86
2022-10-18T06:37:58.406Z,14.88
2022-10-18T06:40:26.706Z,14.88
2022-10-18T06:43:21.642Z,14.89
2022-10-18T06:45:51.660Z,14.92
2022-10-18T06:48:21.193Z,14.94
2022-10-18T06:51:15.404Z,14.93
2022-10-18T06:53:48.567Z,14.91
2022-10-18T06:56:27.218Z,14.92
2022-10-18T06:58:55.499Z,14.91
2022-10-18T07:01:23.747Z,14.89
2022-10-18T07:03:53.938Z,14.88
2022-10-18T07:06:23.714Z,14.87
2022-10-18T07:08:55.351Z,14.86
2022-10-18T07:11:25.997Z,14.85
2022-10-18T07:14:02.425Z,14.85
2022-10-18T07:16:32.222Z,14.85
2022-10-18T07:19:00.625Z,14.86
2022-10-18T07:21:28.936Z,14.89
2022-10-18T07:23:57.517Z,14.82
2022-10-18T07:26:29.415Z,14.92
2022-10-18T07:29:09.892Z,14.92
2022-10-18T07:31:39.281Z,14.93
2022-10-18T07:34:09.252Z,14.95
2022-10-18T07:36:37.662Z,14.97
2022-10-18T07:39:06.552Z,14.98
2022-10-18T07:41:35.107Z,14.98
2022-10-18T07:44:04.393Z,14.97
2022-10-18T07:46:32.685Z,14.96
2022-10-18T07:49:01.117Z,14.96
2022-10-18T07:51:31.080Z,14.97
2022-10-18T07:54:00.035Z,14.98
2022-10-18T07:56:28.428Z,15.00
2022-10-18T07:58:57.249Z,15.02
2022-10-18T08:01:25.741Z,15.02
2022-10-18T08:03:54.173Z,15.03
2022-10-18T08:06:23.510Z,15.04
2022-10-18T08:08:52.444Z,15.01
2022-10-18T08:11:23.584Z,14.97
2022-10-18T08:13:53.252Z,14.95
2022-10-18T08:16:27.451Z,14.94
2022-10-18T08:18:59.139Z,14.94
2022-10-18T08:21:27.426Z,14.92
2022-10-18T08:23:55.639Z,14.93
2022-10-18T08:26:24.077Z,14.92
2022-10-18T08:29:10.194Z,14.93
2022-10-18T08:31:40.459Z,14.94
2022-10-18T08:34:08.598Z,14.96
2022-10-18T08:36:37.641Z,15.00
2022-10-18T08:39:05.796Z,15.04
2022-10-18T08:41:48.914Z,15.06
2022-10-18T08:44:23.333Z,15.00
2022-10-18T08:47:05.024Z,15.09
2022-10-18T08:49:47.029Z,15.12
2022-10-18T08:52:21.502Z,15.15
2022-10-18T08:55:02.163Z,15.17
2022-10-18T09:06:38.870Z,15.32
2022-10-18T09:09:20.642Z,15.34
2022-10-18T09:11:51.617Z,15.38
2022-10-18T09:14:50.063Z,15.40
2022-10-18T09:17:21.534Z,15.44
2022-10-18T09:20:20.123Z,15.49
2022-10-18T09:23:20.257Z,15.52
2022-10-18T09:26:02.300Z,15.55
2022-10-18T09:28:45.710Z,15.58
2022-10-18T09:31:58.437Z,15.60
2022-10-18T09:34:34.953Z,15.64
2022-10-18T09:37:04.590Z,15.67
2022-10-18T09:39:38.037Z,15.71
2022-10-18T09:42:12.958Z,15.76
2022-10-18T09:44:56.278Z,15.78
2022-10-18T09:47:39.966Z,15.82
2022-10-18T09:50:32.538Z,15.83
2022-10-18T09:53:16.053Z,15.84
2022-10-18T09:55:59.266Z,15.87
2022-10-18T09:58:41.569Z,15.90
2022-10-18T10:01:13.246Z,15.90
2022-10-18T10:03:42.651Z,16.01
2022-10-18T10:06:15.341Z,16.03
2022-10-18T10:08:48.781Z,16.05
2022-10-18T10:11:30.713Z,16.04
2022-10-18T10:14:09.488Z,16.04
2022-10-18T10:17:07.303Z,16.07
2022-10-18T10:19:57.061Z,16.11
2022-10-18T10:22:29.457Z,16.13
2022-10-18T10:24:57.750Z,16.16
2022-10-18T10:27:43.626Z,16.11
2022-10-18T10:30:27.182Z,16.15
2022-10-18T10:32:56.646Z,16.17
2022-10-18T10:36:00.397Z,16.18
2022-10-18T10:38:30.942Z,16.25
2022-10-18T10:41:00.078Z,16.33
2022-10-18T10:43:39.396Z,16.44
2022-10-18T10:46:08.178Z,16.57
2022-10-18T10:49:27.530Z,16.68
2022-10-18T10:52:02.446Z,16.77
2022-10-18T10:54:50.355Z,16.79
2022-10-18T10:57:24.177Z,16.79
2022-10-18T10:59:55.439Z,16.69
2022-10-18T11:02:32.474Z,16.75
2022-10-18T11:05:23.791Z,16.68
2022-10-18T11:07:56.839Z,16.64
2022-10-18T11:10:31.281Z,16.60
2022-10-18T11:13:08.291Z,16.56
2022-10-18T11:15:43.769Z,16.56
2022-10-18T11:18:34.789Z,16.56
2022-10-18T11:21:21.797Z,16.49
2022-10-18T11:23:50.281Z,16.58
2022-10-18T11:26:24.459Z,16.57
2022-10-18T11:29:02.139Z,16.53
2022-10-18T11:31:41.886Z,16.50
2022-10-18T11:34:43.724Z,16.47
2022-10-18T11:37:44.916Z,16.37
2022-10-18T11:40:57.949Z,16.30
2022-10-18T11:44:01.830Z,16.19
2022-10-18T11:46:47.026Z,16.24
2022-10-18T11:49:32.535Z,16.25
2022-10-18T11:52:18.323Z,16.22
2022-10-18T11:55:13.920Z,16.21
2022-10-18T11:57:49.568Z,16.24
2022-10-18T12:00:32.788Z,16.28
2022-10-18T12:03:12.151Z,16.31
2022-10-18T12:05:43.640Z,16.34
2022-10-18T12:08:16.679Z,16.36
2022-10-18T12:11:06.630Z,16.36
2022-10-18T12:13:43.416Z,16.36
2022-10-18T12:16:13.343Z,16.27
2022-10-18T12:19:14.180Z,16.36
2022-10-18T12:21:43.392Z,16.29
2022-10-18T12:24:20.517Z,16.39
2022-10-18T12:26:52.011Z,16.40
2022-10-18T12:29:35.937Z,16.39
2022-10-18T12:32:13.242Z,16.39
2022-10-18T12:34:46.383Z,16.37
2022-10-18T12:37:39.286Z,16.35
2022-10-18T12:40:20.470Z,16.31
2022-10-18T12:42:52.849Z,16.27
2022-10-18T12:45:48.813Z,16.27
2022-10-18T12:48:33.637Z,16.23
2022-10-18T12:51:15.153Z,16.15
2022-10-18T12:53:46.762Z,16.10
2022-10-18T12:56:30.191Z,16.14
2022-10-18T12:59:16.592Z,16.12
2022-10-18T13:01:51.223Z,15.91
2022-10-18T13:04:32.643Z,16.03
2022-10-18T13:07:32.100Z,16.03
2022-10-18T13:10:13.023Z,15.99
2022-10-18T13:12:44.237Z,16.00
2022-10-18T13:15:44.631Z,15.98
2022-10-18T13:18:26.686Z,15.82
2022-10-18T13:21:17.534Z,15.68
2022-10-18T13:24:24.418Z,15.61
2022-10-18T13:27:04.063Z,15.55
2022-10-18T13:30:27.781Z,15.48
2022-10-18T13:32:59.089Z,15.37
2022-10-18T13:35:55.839Z,15.30
2022-10-18T13:38:56.055Z,15.26
2022-10-18T13:41:29.164Z,15.18
2022-10-18T13:44:28.965Z,15.14
2022-10-18T13:46:57.228Z,15.11
2022-10-18T13:49:38.915Z,15.07
2022-10-18T13:52:22.882Z,15.06
2022-10-18T13:55:17.086Z,15.04
2022-10-18T13:58:22.201Z,15.03
2022-10-18T14:01:18.669Z,14.99
2022-10-18T14:04:01.245Z,14.90
2022-10-18T14:06:37.455Z,14.91
2022-10-18T14:09:39.916Z,14.83
2022-10-18T14:12:31.136Z,14.87
2022-10-18T14:15:14.941Z,14.84
2022-10-18T14:18:05.257Z,14.82
2022-10-18T14:20:55.218Z,14.79
2022-10-18T14:23:35.328Z,14.76
2022-10-18T14:26:19.897Z,14.65
2022-10-18T14:29:16.160Z,14.72
2022-10-18T14:31:55.166Z,14.64
2022-10-18T14:34:24.005Z,14.72
2022-10-18T14:36:52.354Z,14.73
2022-10-18T14:39:29.187Z,14.74
2022-10-18T14:41:58.585Z,14.74
2022-10-18T14:44:30.213Z,14.73
2022-10-18T14:47:04.513Z,14.70
2022-10-18T14:49:32.878Z,14.67
2022-10-18T14:52:01.584Z,14.53
2022-10-18T14:54:36.605Z,14.59
2022-10-18T14:57:07.169Z,14.55
2022-10-18T14:59:58.705Z,14.50
2022-10-18T15:02:30.803Z,14.43
2022-10-18T15:05:06.981Z,14.39
2022-10-18T15:07:35.990Z,14.32
2022-10-18T15:10:05.925Z,14.39
2022-10-18T15:12:37.128Z,14.37
2022-10-18T15:15:19.896Z,14.35
2022-10-18T15:17:49.622Z,14.36
2022-10-18T15:20:28.757Z,14.36
2022-10-18T15:23:24.739Z,14.32
2022-10-18T15:26:12.837Z,14.31
2022-10-18T15:28:51.503Z,14.30
2022-10-18T15:31:29.442Z,14.27
2022-10-18T15:34:10.734Z,14.22
2022-10-18T15:36:39.458Z,14.19
2022-10-18T15:39:24.471Z,14.17
2022-10-18T15:41:54.194Z,14.17
2022-10-18T15:44:34.858Z,14.18
2022-10-18T15:47:29.745Z,14.19
2022-10-18T15:49:59.142Z,14.16
2022-10-18T15:52:38.094Z,14.07
2022-10-18T15:55:33.215Z,13.98
2022-10-18T15:58:12.279Z,13.89
2022-10-18T16:00:42.224Z,13.83
2022-10-18T16:03:10.714Z,13.80
2022-10-18T16:05:39.502Z,13.81
2022-10-18T16:08:18.843Z,13.82
2022-10-18T16:10:47.008Z,13.83
2022-10-18T16:13:15.081Z,13.81
2022-10-18T16:15:43.278Z,13.78
2022-10-18T16:18:17.808Z,13.77
2022-10-18T16:20:47.890Z,13.76
2022-10-18T16:23:19.136Z,13.73
2022-10-18T16:25:47.833Z,13.72
2022-10-18T16:28:19.364Z,13.70
2022-10-18T16:31:00.152Z,13.67
2022-10-18T16:33:28.435Z,13.65
2022-10-18T16:35:57.626Z,13.63
2022-10-18T16:38:32.611Z,13.58
2022-10-18T16:41:07.364Z,13.45
2022-10-18T16:43:36.022Z,13.35
2022-10-18T16:46:04.923Z,13.33
2022-10-18T16:48:33.726Z,13.32
2022-10-18T16:51:02.318Z,13.31
2022-10-18T16:53:30.624Z,13.22
2022-10-18T16:56:01.175Z,13.17
2022-10-18T16:58:31.553Z,13.14
2022-10-18T17:01:01.892Z,13.11
2022-10-18T17:03:32.338Z,13.08
2022-10-18T17:06:00.499Z,13.08
2022-10-18T17:08:33.618Z,13.07
2022-10-18T17:11:02.318Z,13.05
2022-10-18T17:13:30.711Z,13.02
2022-10-18T17:16:00.680Z,13.00
2022-10-18T17:18:30.739Z,12.97
2022-10-18T17:21:03.321Z,12.94
2022-10-18T17:23:31.790Z,12.90
2022-10-18T17:26:07.147Z,12.84
2022-10-18T17:28:43.606Z,12.81
2022-10-18T17:31:14.997Z,12.79
2022-10-18T17:33:43.295Z,12.72
2022-10-18T17:36:12.682Z,12.67
2022-10-18T17:38:41.123Z,12.63
2022-10-18T17:41:11.302Z,12.61
2022-10-18T17:46:14.520Z,12.55
2022-10-18T17:48:43.065Z,12.51
2022-10-18T17:51:14.322Z,12.51
2022-10-18T17:53:43.264Z,12.51
2022-10-18T17:56:12.113Z,12.53
2022-10-18T17:58:43.265Z,12.53
2022-10-18T18:01:20.297Z,12.53
2022-10-18T18:03:48.495Z,12.53
2022-10-18T18:06:20.772Z,12.53
2022-10-18T18:08:49.975Z,12.52
2022-10-18T18:11:18.292Z,12.51
2022-10-18T18:13:46.483Z,12.51
2022-10-18T18:16:18.972Z,12.50
2022-10-18T18:18:49.807Z,12.52
2022-10-18T18:21:19.034Z,12.56
2022-10-18T18:23:48.715Z,12.54
2022-10-18T18:26:19.020Z,12.58
2022-10-18T18:28:47.588Z,12.57
2022-10-18T18:31:18.900Z,12.56
2022-10-18T18:33:47.211Z,12.53
2022-10-18T18:36:15.403Z,12.52
2022-10-18T18:38:44.071Z,12.51
2022-10-18T18:41:12.751Z,12.49
2022-10-18T18:43:46.952Z,12.48
2022-10-18T18:46:15.621Z,12.47
2022-10-18T18:48:43.912Z,12.43
2022-10-18T18:51:15.261Z,12.40
2022-10-18T18:53:45.225Z,12.38
2022-10-18T18:58:54.028Z,12.27
2022-10-18T19:01:25.296Z,12.22
2022-10-18T19:03:55.915Z,12.18
2022-10-18T19:06:25.531Z,12.14
2022-10-18T19:09:00.337Z,12.10
2022-10-18T19:11:33.512Z,12.05
2022-10-18T19:14:03.650Z,12.03
2022-10-18T19:16:34.136Z,12.00
2022-10-18T19:19:06.354Z,11.98
2022-10-18T19:21:37.579Z,11.97
2022-10-18T19:24:06.843Z,11.95
2022-10-18T19:26:45.730Z,11.94
2022-10-18T19:29:21.405Z,11.92
2022-10-18T19:31:52.064Z,11.90
2022-10-18T19:34:21.243Z,11.89
2022-10-18T19:36:51.188Z,11.87
2022-10-18T19:39:21.867Z,11.83
2022-10-18T19:41:53.051Z,11.80
2022-10-18T19:44:23.370Z,11.78
2022-10-18T19:46:51.974Z,11.74
2022-10-18T19:49:20.510Z,11.69
2022-10-18T19:51:48.931Z,11.68
2022-10-18T19:54:17.168Z,11.66
2022-10-18T19:56:45.604Z,11.64
2022-10-18T19:59:16.306Z,11.63
2022-10-18T20:01:45.475Z,11.62
2022-10-18T20:04:14.743Z,11.56
2022-10-18T20:06:43.183Z,11.61
2022-10-18T20:09:16.151Z,11.61
2022-10-18T20:11:48.303Z,11.60
2022-10-18T20:14:16.694Z,11.59
2022-10-18T20:16:44.943Z,11.57
2022-10-18T20:19:13.218Z,11.56
2022-10-18T20:21:41.479Z,11.50
2022-10-18T20:24:11.694Z,11.54
2022-10-18T20:26:40.152Z,11.54
2022-10-18T20:29:08.600Z,11.52
2022-10-18T20:31:39.201Z,11.49
2022-10-18T20:34:11.987Z,11.48
2022-10-18T20:36:40.655Z,11.47
2022-10-18T20:39:09.842Z,11.45
2022-10-18T20:41:41.500Z,11.43
2022-10-18T20:44:14.345Z,11.40
2022-10-18T20:46:44.311Z,11.38
2022-10-18T20:49:16.514Z,11.36
2022-10-18T20:51:45.946Z,11.35
2022-10-18T20:54:14.615Z,11.35
2022-10-18T20:56:43.033Z,11.27
2022-10-18T20:59:11.721Z,11.36
2022-10-18T21:01:40.168Z,11.36
2022-10-18T21:04:10.286Z,11.36
2022-10-18T21:06:43.827Z,11.36
2022-10-18T21:09:13.523Z,11.31
2022-10-18T21:11:45.080Z,11.34
2022-10-18T21:14:19.279Z,11.34
2022-10-18T21:16:48.382Z,11.33
2022-10-18T21:19:23.735Z,11.34
2022-10-18T21:21:54.888Z,11.34
2022-10-18T21:24:25.558Z,11.35
2022-10-18T21:26:54.930Z,11.35
2022-10-18T21:29:27.130Z,11.36
2022-10-18T21:31:59.449Z,11.36
2022-10-18T21:34:27.807Z,11.36
2022-10-18T21:36:56.803Z,11.37
2022-10-18T21:39:25.174Z,11.38
2022-10-18T21:41:54.299Z,11.37
2022-10-18T21:44:22.548Z,11.38
2022-10-18T21:46:50.941Z,11.38
2022-10-18T21:49:19.269Z,11.39
2022-10-18T21:51:47.574Z,11.38
2022-10-18T21:54:16.818Z,11.40
2022-10-18T21:56:45.457Z,11.39
2022-10-18T21:59:14.219Z,11.40
2022-10-18T22:01:44.340Z,11.40
2022-10-18T22:04:22.318Z,11.40
2022-10-18T22:06:51.031Z,11.39
2022-10-18T22:09:21.500Z,11.37
2022-10-18T22:11:53.483Z,11.37
2022-10-18T22:14:22.278Z,11.19
2022-10-18T22:16:51.321Z,11.34
2022-10-18T22:19:19.820Z,11.32
2022-10-18T22:21:48.009Z,11.31
2022-10-18T22:24:16.228Z,11.29
2022-10-18T22:26:45.784Z,11.26
2022-10-18T22:29:17.096Z,11.26
2022-10-18T22:31:52.732Z,11.26
2022-10-18T22:34:29.281Z,11.25
2022-10-18T22:36:57.800Z,11.24
2022-10-18T22:39:27.077Z,11.23
2022-10-18T22:41:56.773Z,11.23
2022-10-18T22:44:25.147Z,11.23
2022-10-18T22:46:53.373Z,11.22
2022-10-18T22:49:21.764Z,11.21
2022-10-18T22:51:50.296Z,11.21
2022-10-18T22:54:18.653Z,11.21
2022-10-18T22:56:46.932Z,11.22
2022-10-18T22:59:15.187Z,11.22
2022-10-18T23:01:43.520Z,11.22
2022-10-18T23:04:11.728Z,11.21
2022-10-18T23:06:40.272Z,11.21
2022-10-18T23:09:11.103Z,11.21
2022-10-18T23:11:39.434Z,11.21
2022-10-18T23:14:07.715Z,11.21
2022-10-18T23:16:36.056Z,11.21
2022-10-18T23:19:04.387Z,11.21
2022-10-18T23:21:33.866Z,11.21
2022-10-18T23:24:02.174Z,11.14
2022-10-18T23:26:30.495Z,11.22
2022-10-18T23:28:58.888Z,11.22
2022-10-18T23:31:30.189Z,11.22
2022-10-18T23:34:02.075Z,11.22
2022-10-18T23:36:32.140Z,11.22
2022-10-18T23:39:00.566Z,11.22
2022-10-18T23:41:28.972Z,11.21
2022-10-18T23:43:57.239Z,11.22
2022-10-18T23:46:25.653Z,11.23
2022-10-18T23:48:53.868Z,11.21
2022-10-18T23:51:22.052Z,11.18
2022-10-18T23:53:50.317Z,11.17
2022-10-18T23:56:18.585Z,11.15
2022-10-18T23:58:46.873Z,11.15
